TAF KSOA
KSOA 270520Z 2706/2806 21006KT P6SM VCSH SCT040 BKN080 FM271100 20005KT 5SM -RA BR BKN015 FM271500 20005KT 3SM -RA BR OVC008 FM272100 22005KT 5SM -RA BR BKN020 FM280000 22003KT P6SM BKN100=
METAR KSOA
WC KSOA
WS KSOA
WV KSOA